Time;durP1;ratioP1;P1;durP2;ratioP2;P2;SDS_P1;SDS_P2;PMS_P1;PMS_P2;Temp;Humidity;BMP_temperature;BMP_pressure;BME280_temperature;BME280_humidity;BME280_pressure;Samples;Min_cycle;Max_cycle;Signal;HPM_P1;HPM_P2
2022/07/05 00:00:41;;;;;;;2.95;2.05;;;;;;;;;;5010994;28;20029;-70
2022/07/05 00:03:27;;;;;;;5.03;2.85;;;;;;;;;;5009882;28;20441;-70
2022/07/05 00:06:13;;;;;;;2.95;2.00;;;;;;;;;;5012188;28;20038;-69
2022/07/05 00:08:59;;;;;;;4.75;2.78;;;;;;;;;;5008358;28;20018;-64
2022/07/05 00:11:44;;;;;;;4.60;2.40;;;;;;;;;;5010975;28;20032;-68
2022/07/05 00:14:30;;;;;;;4.57;2.33;;;;;;;;;;5008479;28;20049;-69
2022/07/05 00:17:16;;;;;;;4.32;2.22;;;;;;;;;;5009992;28;20066;-67
2022/07/05 00:20:02;;;;;;;4.13;2.53;;;;;;;;;;5011311;28;20021;-68
2022/07/05 00:22:47;;;;;;;6.20;2.80;;;;;;;;;;5005310;28;20076;-70
2022/07/05 00:25:36;;;;;;;4.18;2.10;;;;;;;;;;5020084;28;20021;-75
2022/07/05 00:28:22;;;;;;;4.65;2.25;;;;;;;;;;5008914;28;20457;-68
2022/07/05 00:31:07;;;;;;;3.95;2.35;;;;;;;;;;5003200;28;20064;-68
2022/07/05 00:33:53;;;;;;;4.00;2.38;;;;;;;;;;5011408;28;20045;-67
2022/07/05 00:36:38;;;;;;;3.25;2.10;;;;;;;;;;5008478;28;20037;-68
2022/07/05 00:39:26;;;;;;;6.05;3.00;;;;;;;;;;5008638;28;20022;-68
2022/07/05 00:42:12;;;;;;;5.32;2.50;;;;;;;;;;5010695;28;20061;-67
2022/07/05 00:44:57;;;;;;;5.03;2.50;;;;;;;;;;4942524;28;20050;-68
2022/07/05 00:47:43;;;;;;;5.45;2.13;;;;;;;;;;4955530;28;20061;-71
2022/07/05 00:50:29;;;;;;;4.70;2.67;;;;;;;;;;4947691;28;20031;-70
2022/07/05 00:53:14;;;;;;;4.18;2.03;;;;;;;;;;4944626;28;20071;-73
2022/07/05 00:56:00;;;;;;;4.88;2.50;;;;;;;;;;4947531;28;20043;-71
2022/07/05 00:58:46;;;;;;;4.30;2.28;;;;;;;;;;4943502;28;20419;-70
2022/07/05 01:01:31;;;;;;;5.53;2.60;;;;;;;;;;4950822;28;20096;-70
2022/07/05 01:04:17;;;;;;;3.88;2.40;;;;;;;;;;4940180;28;20051;-62
2022/07/05 01:07:03;;;;;;;6.22;2.88;;;;;;;;;;4949367;28;20119;-66
2022/07/05 01:09:49;;;;;;;4.50;2.30;;;;;;;;;;4954139;28;20030;-65
2022/07/05 01:12:36;;;;;;;4.22;2.30;;;;;;;;;;4950578;28;20462;-65
2022/07/05 01:15:23;;;;;;;3.30;2.20;;;;;;;;;;4956934;28;20039;-63
2022/07/05 01:18:09;;;;;;;2.78;2.13;;;;;;;;;;4953059;28;20464;-64
2022/07/05 01:20:55;;;;;;;2.70;2.00;;;;;;;;;;4968099;28;20019;-67
2022/07/05 01:23:41;;;;;;;4.25;2.20;;;;;;;;;;4952625;28;20114;-62
2022/07/05 01:26:27;;;;;;;4.25;2.30;;;;;;;;;;4959592;28;20031;-60
2022/07/05 01:29:12;;;;;;;3.70;2.00;;;;;;;;;;4949440;28;20500;-62
2022/07/05 01:31:58;;;;;;;3.67;2.92;;;;;;;;;;4954356;28;20030;-59
2022/07/05 01:34:43;;;;;;;4.10;2.25;;;;;;;;;;4956425;28;20043;-61
2022/07/05 01:37:29;;;;;;;4.85;3.28;;;;;;;;;;4961172;28;20027;-61
2022/07/05 01:40:16;;;;;;;2.72;1.73;;;;;;;;;;4955855;28;20031;-67
2022/07/05 01:43:02;;;;;;;6.93;2.22;;;;;;;;;;4951060;28;20019;-71
2022/07/05 01:45:48;;;;;;;4.78;2.22;;;;;;;;;;4970588;28;20026;-70
2022/07/05 01:48:35;;;;;;;5.57;2.38;;;;;;;;;;4967157;28;20150;-70
2022/07/05 01:51:23;;;;;;;6.38;1.95;;;;;;;;;;4957326;28;20035;-71
2022/07/05 01:54:09;;;;;;;6.82;2.38;;;;;;;;;;4970041;28;20070;-71
2022/07/05 01:56:55;;;;;;;2.33;1.73;;;;;;;;;;4956123;28;20026;-69
2022/07/05 01:59:40;;;;;;;4.40;2.65;;;;;;;;;;4968262;28;20038;-69
2022/07/05 02:02:26;;;;;;;3.42;2.00;;;;;;;;;;4972881;28;20035;-59
2022/07/05 02:05:11;;;;;;;3.67;2.05;;;;;;;;;;4962034;28;20035;-64
2022/07/05 02:07:57;;;;;;;2.97;2.15;;;;;;;;;;4958550;28;20027;-62
2022/07/05 02:10:43;;;;;;;2.25;1.92;;;;;;;;;;4968056;28;20470;-60
2022/07/05 02:13:29;;;;;;;4.68;2.03;;;;;;;;;;4966445;28;20023;-60
2022/07/05 02:16:14;;;;;;;4.07;1.85;;;;;;;;;;4972167;28;20045;-73
2022/07/05 02:19:00;;;;;;;3.58;2.33;;;;;;;;;;4975300;28;20099;-62
2022/07/05 02:21:45;;;;;;;3.42;2.13;;;;;;;;;;4963765;28;20072;-61
2022/07/05 02:24:31;;;;;;;2.55;2.13;;;;;;;;;;4957844;28;20023;-60
2022/07/05 02:27:17;;;;;;;4.90;2.10;;;;;;;;;;4976467;28;20042;-60
2022/07/05 02:30:03;;;;;;;4.72;2.00;;;;;;;;;;4971777;28;20026;-63
2022/07/05 02:32:48;;;;;;;3.80;1.95;;;;;;;;;;4974328;28;20049;-60
2022/07/05 02:35:34;;;;;;;4.43;2.40;;;;;;;;;;4945929;28;20050;-66
2022/07/05 02:38:19;;;;;;;4.63;2.20;;;;;;;;;;4945536;28;20026;-73
2022/07/05 02:41:08;;;;;;;3.92;2.03;;;;;;;;;;4948149;28;20027;-74
2022/07/05 02:43:54;;;;;;;2.85;2.20;;;;;;;;;;4942825;28;20225;-74
2022/07/05 02:46:39;;;;;;;4.20;2.10;;;;;;;;;;4942989;28;20532;-75
2022/07/05 02:49:25;;;;;;;2.05;1.80;;;;;;;;;;4947863;28;20044;-74
2022/07/05 02:52:11;;;;;;;4.90;2.00;;;;;;;;;;4946543;28;20034;-77
2022/07/05 02:54:56;;;;;;;4.55;2.38;;;;;;;;;;4944462;28;20055;-68
2022/07/05 02:57:42;;;;;;;4.75;2.03;;;;;;;;;;4947851;28;20019;-66
2022/07/05 03:00:27;;;;;;;3.55;2.20;;;;;;;;;;4945718;28;20043;-67
2022/07/05 03:03:13;;;;;;;1.95;1.70;;;;;;;;;;4949509;28;20035;-68
2022/07/05 03:05:59;;;;;;;3.08;2.15;;;;;;;;;;4943850;28;20055;-67
2022/07/05 03:08:45;;;;;;;2.22;1.80;;;;;;;;;;4948414;28;20059;-67
2022/07/05 03:11:31;;;;;;;3.88;2.05;;;;;;;;;;4951905;28;20493;-68
2022/07/05 03:14:16;;;;;;;2.28;1.80;;;;;;;;;;4952419;28;20043;-69
2022/07/05 03:17:02;;;;;;;3.35;2.00;;;;;;;;;;4948237;28;20023;-70
2022/07/05 03:19:47;;;;;;;4.95;1.95;;;;;;;;;;4950331;28;20505;-69
2022/07/05 03:22:33;;;;;;;2.53;1.80;;;;;;;;;;4958433;28;20110;-70
2022/07/05 03:25:18;;;;;;;4.45;2.20;;;;;;;;;;4942627;28;22016;-70
2022/07/05 03:28:04;;;;;;;2.97;2.03;;;;;;;;;;4963015;28;20034;-70
2022/07/05 03:30:50;;;;;;;2.83;1.90;;;;;;;;;;4955244;28;20029;-72
2022/07/05 03:33:35;;;;;;;2.33;1.83;;;;;;;;;;4943819;28;20567;-62
2022/07/05 03:36:21;;;;;;;4.60;1.80;;;;;;;;;;4947764;28;20035;-63
2022/07/05 03:39:07;;;;;;;4.10;1.90;;;;;;;;;;4999670;28;20487;-62
2022/07/05 03:41:53;;;;;;;5.35;1.98;;;;;;;;;;4933180;28;20035;-61
2022/07/05 03:44:38;;;;;;;6.55;2.45;;;;;;;;;;4955994;28;20083;-63
2022/07/05 03:47:24;;;;;;;3.70;2.13;;;;;;;;;;4949193;28;20123;-62
2022/07/05 03:50:10;;;;;;;2.20;2.00;;;;;;;;;;4948806;28;20027;-60
2022/07/05 03:52:55;;;;;;;9.65;2.70;;;;;;;;;;4949674;28;20034;-73
2022/07/05 03:55:41;;;;;;;3.72;2.00;;;;;;;;;;4949443;28;20111;-74
2022/07/05 03:58:26;;;;;;;4.18;2.10;;;;;;;;;;4949282;28;20077;-73
2022/07/05 04:01:12;;;;;;;3.08;2.00;;;;;;;;;;4956277;28;20397;-73
2022/07/05 04:03:58;;;;;;;5.38;2.00;;;;;;;;;;4958160;28;20029;-76
2022/07/05 04:06:43;;;;;;;3.45;2.00;;;;;;;;;;4961555;28;20027;-68
2022/07/05 04:09:29;;;;;;;5.40;2.00;;;;;;;;;;4951814;28;20047;-69
2022/07/05 04:12:14;;;;;;;5.50;2.28;;;;;;;;;;4946922;28;20131;-69
2022/07/05 04:15:00;;;;;;;5.60;2.88;;;;;;;;;;4953720;28;20035;-66
2022/07/05 04:17:50;;;;;;;2.90;1.95;;;;;;;;;;4951348;28;20401;-65
2022/07/05 04:20:35;;;;;;;;;;;;;;;;;;4948995;28;20041;-68
2022/07/05 04:23:20;;;;;;;2.00;1.80;;;;;;;;;;4951481;28;19911;-67
2022/07/05 04:26:06;;;;;;;5.93;2.10;;;;;;;;;;4943785;28;20023;-61
2022/07/05 04:28:52;;;;;;;4.72;2.28;;;;;;;;;;4952838;28;20088;-67
2022/07/05 04:31:37;;;;;;;3.38;2.35;;;;;;;;;;4994892;28;20027;-64
2022/07/05 04:34:23;;;;;;;3.28;2.00;;;;;;;;;;4944431;28;20047;-65
2022/07/05 04:37:08;;;;;;;3.67;1.92;;;;;;;;;;4946629;28;20073;-63
2022/07/05 04:39:54;;;;;;;4.43;2.55;;;;;;;;;;4947956;28;20030;-64
2022/07/05 04:42:40;;;;;;;5.25;2.33;;;;;;;;;;4950029;28;20027;-64
2022/07/05 04:45:25;;;;;;;3.67;2.17;;;;;;;;;;4954607;28;20035;-67
2022/07/05 04:48:11;;;;;;;2.72;2.38;;;;;;;;;;4948276;28;20382;-64
2022/07/05 04:50:57;;;;;;;4.38;2.50;;;;;;;;;;4949334;28;20023;-65
2022/07/05 04:53:42;;;;;;;4.47;2.67;;;;;;;;;;4975317;28;20034;-65
2022/07/05 04:56:28;;;;;;;3.03;2.15;;;;;;;;;;4951916;28;20034;-65
2022/07/05 04:59:13;;;;;;;4.75;2.38;;;;;;;;;;4952981;28;20517;-65
2022/07/05 05:01:59;;;;;;;3.45;2.20;;;;;;;;;;4953808;28;20034;-62
2022/07/05 05:04:44;;;;;;;3.75;2.35;;;;;;;;;;4949499;28;20099;-60
2022/07/05 05:07:30;;;;;;;3.17;2.15;;;;;;;;;;4942421;28;20406;-61
2022/07/05 05:10:16;;;;;;;3.35;2.17;;;;;;;;;;4968794;28;20028;-60
2022/07/05 05:13:01;;;;;;;7.97;2.45;;;;;;;;;;4944262;28;20035;-62
2022/07/05 05:15:47;;;;;;;5.15;2.40;;;;;;;;;;4954250;28;20043;-64
2022/07/05 05:18:33;;;;;;;3.17;2.00;;;;;;;;;;4947747;28;20031;-63
2022/07/05 05:21:18;;;;;;;2.72;1.70;;;;;;;;;;4940192;28;20030;-66
2022/07/05 05:24:04;;;;;;;4.53;2.47;;;;;;;;;;4945000;28;20106;-70
2022/07/05 05:26:50;;;;;;;6.80;1.80;;;;;;;;;;4949305;28;20146;-70
2022/07/05 05:29:36;;;;;;;2.92;1.90;;;;;;;;;;4946179;28;20031;-68
2022/07/05 05:32:22;;;;;;;4.93;2.25;;;;;;;;;;4946924;28;20027;-70
2022/07/05 05:35:07;;;;;;;4.38;1.63;;;;;;;;;;4945745;28;20035;-70
2022/07/05 05:37:54;;;;;;;4.70;2.20;;;;;;;;;;4950110;28;20023;-69
2022/07/05 05:40:44;;;;;;;6.00;2.13;;;;;;;;;;4948636;28;20027;-68
2022/07/05 05:43:30;;;;;;;4.68;1.70;;;;;;;;;;4950776;28;20089;-70
2022/07/05 05:46:15;;;;;;;4.00;1.98;;;;;;;;;;4947103;28;20031;-70
2022/07/05 05:49:01;;;;;;;4.00;1.80;;;;;;;;;;4954266;28;20102;-70
2022/07/05 05:51:46;;;;;;;6.18;2.03;;;;;;;;;;4949203;28;20118;-74
2022/07/05 05:54:32;;;;;;;4.63;2.05;;;;;;;;;;4948562;28;20050;-70
2022/07/05 05:57:17;;;;;;;3.00;2.15;;;;;;;;;;4946506;28;20429;-70
2022/07/05 06:00:06;;;;;;;2.67;1.83;;;;;;;;;;4946904;28;20047;-67
2022/07/05 06:02:52;;;;;;;3.70;1.80;;;;;;;;;;4947687;28;20050;-67
2022/07/05 06:05:38;;;;;;;4.50;1.50;;;;;;;;;;4940171;28;20261;-63
2022/07/05 06:08:23;;;;;;;2.20;1.45;;;;;;;;;;4949398;28;20046;-64
2022/07/05 06:11:09;;;;;;;1.60;1.45;;;;;;;;;;4948784;28;20027;-64
2022/07/05 06:13:54;;;;;;;2.88;1.50;;;;;;;;;;4946727;28;20039;-66
2022/07/05 06:16:40;;;;;;;2.70;1.60;;;;;;;;;;4962480;28;20035;-61
2022/07/05 06:19:26;;;;;;;5.03;1.60;;;;;;;;;;4949893;28;20025;-65
2022/07/05 06:22:11;;;;;;;4.80;1.60;;;;;;;;;;4957624;28;20558;-63
2022/07/05 06:24:57;;;;;;;3.15;1.40;;;;;;;;;;4951146;28;20070;-64
2022/07/05 06:27:43;;;;;;;6.88;1.52;;;;;;;;;;4949769;28;20031;-64
2022/07/05 06:30:30;;;;;;;2.75;1.67;;;;;;;;;;4952667;28;20032;-64
2022/07/05 06:33:15;;;;;;;2.25;1.40;;;;;;;;;;4949126;28;20042;-68
2022/07/05 06:36:01;;;;;;;1.65;1.20;;;;;;;;;;4945368;28;20033;-71
2022/07/05 06:38:46;;;;;;;3.80;1.52;;;;;;;;;;4951129;28;20423;-60
2022/07/05 06:41:32;;;;;;;3.45;1.35;;;;;;;;;;4951197;28;20077;-60
2022/07/05 06:44:17;;;;;;;3.92;1.40;;;;;;;;;;4948744;28;20161;-62
2022/07/05 06:47:03;;;;;;;5.63;1.20;;;;;;;;;;4952972;28;20027;-61
2022/07/05 06:49:49;;;;;;;2.55;1.10;;;;;;;;;;4949359;28;20055;-60
2022/07/05 06:52:34;;;;;;;2.63;1.25;;;;;;;;;;4953392;28;20035;-63
2022/07/05 06:55:20;;;;;;;2.55;0.93;;;;;;;;;;4947228;28;20122;-60
2022/07/05 06:58:07;;;;;;;2.65;1.20;;;;;;;;;;4950825;28;20070;-60
2022/07/05 07:00:53;;;;;;;3.60;1.13;;;;;;;;;;4949643;28;20128;-61
2022/07/05 07:03:38;;;;;;;6.15;1.20;;;;;;;;;;4946685;28;20110;-61
2022/07/05 07:06:24;;;;;;;1.88;1.40;;;;;;;;;;4939284;28;20047;-62
2022/07/05 07:09:20;;;;;;;3.05;1.20;;;;;;;;;;4944637;28;20027;-60
2022/07/05 07:12:06;;;;;;;5.93;1.48;;;;;;;;;;4948104;28;20383;-66
2022/07/05 07:14:51;;;;;;;2.33;1.23;;;;;;;;;;4950126;28;20059;-66
2022/07/05 07:17:37;;;;;;;4.28;1.10;;;;;;;;;;4943886;28;20038;-66
2022/07/05 07:20:23;;;;;;;5.10;1.30;;;;;;;;;;4950063;28;20031;-65
2022/07/05 07:23:08;;;;;;;2.65;1.50;;;;;;;;;;4967909;28;20019;-66
2022/07/05 07:25:54;;;;;;;2.03;1.20;;;;;;;;;;4950180;28;20509;-67
2022/07/05 07:28:40;;;;;;;2.30;1.10;;;;;;;;;;4951735;28;20046;-67
2022/07/05 07:31:26;;;;;;;4.60;1.40;;;;;;;;;;4960619;28;20509;-66
2022/07/05 07:34:11;;;;;;;3.42;1.30;;;;;;;;;;4947539;28;20058;-60
2022/07/05 07:36:57;;;;;;;3.95;1.35;;;;;;;;;;4947517;28;20023;-61
2022/07/05 07:39:42;;;;;;;4.68;1.60;;;;;;;;;;4947141;28;20106;-60
2022/07/05 07:42:28;;;;;;;1.48;1.10;;;;;;;;;;4942364;28;20067;-60
2022/07/05 07:45:14;;;;;;;3.20;1.30;;;;;;;;;;4963259;28;20068;-60
2022/07/05 07:47:59;;;;;;;2.78;1.05;;;;;;;;;;4975642;28;20029;-67
2022/07/05 07:50:45;;;;;;;4.45;1.13;;;;;;;;;;4951340;28;20512;-67
2022/07/05 07:53:30;;;;;;;3.40;1.40;;;;;;;;;;4955453;28;20029;-67
2022/07/05 07:56:16;;;;;;;2.20;1.23;;;;;;;;;;4961794;28;20051;-67
2022/07/05 07:59:01;;;;;;;1.20;1.08;;;;;;;;;;4954221;28;20019;-67
2022/07/05 08:01:47;;;;;;;4.47;1.30;;;;;;;;;;4952027;28;20110;-66
2022/07/05 08:04:33;;;;;;;3.05;1.15;;;;;;;;;;4967027;28;20028;-67
2022/07/05 08:07:19;;;;;;;3.45;1.08;;;;;;;;;;4952080;28;20822;-72
2022/07/05 08:10:05;;;;;;;2.95;1.38;;;;;;;;;;4945657;28;20390;-65
2022/07/05 08:12:51;;;;;;;2.42;1.10;;;;;;;;;;4954324;28;20030;-65
2022/07/05 08:15:36;;;;;;;3.05;1.27;;;;;;;;;;4953667;28;20094;-66
2022/07/05 08:21:37;;;;;;;4.50;1.40;;;;;;;;;;4951657;28;20118;-66
2022/07/05 08:24:22;;;;;;;5.30;1.02;;;;;;;;;;4950160;28;20031;-60
2022/07/05 08:27:08;;;;;;;3.20;1.35;;;;;;;;;;4947963;28;20101;-59
2022/07/05 08:29:54;;;;;;;2.75;1.30;;;;;;;;;;4940879;28;20087;-60
2022/07/05 08:32:39;;;;;;;4.25;1.00;;;;;;;;;;4948417;28;20035;-58
2022/07/05 08:35:25;;;;;;;5.85;1.20;;;;;;;;;;4949064;28;20472;-59
2022/07/05 08:38:12;;;;;;;6.55;1.48;;;;;;;;;;4947091;28;20474;-61
2022/07/05 08:40:58;;;;;;;1.83;1.13;;;;;;;;;;4949463;28;20041;-60
2022/07/05 08:43:45;;;;;;;2.08;1.27;;;;;;;;;;4952283;28;20103;-73
2022/07/05 08:46:31;;;;;;;2.60;1.05;;;;;;;;;;4989581;28;20027;-61
2022/07/05 08:49:21;;;;;;;4.05;1.20;;;;;;;;;;4952342;28;20269;-61
2022/07/05 08:52:10;;;;;;;1.92;0.90;;;;;;;;;;4963195;28;20035;-61
2022/07/05 08:54:56;;;;;;;2.90;1.20;;;;;;;;;;4944199;28;20059;-61
2022/07/05 08:57:42;;;;;;;2.08;1.13;;;;;;;;;;4952829;28;20027;-61
2022/07/05 09:00:28;;;;;;;5.45;1.38;;;;;;;;;;4936951;28;20042;-68
2022/07/05 09:03:14;;;;;;;3.92;1.33;;;;;;;;;;4955481;28;20038;-66
2022/07/05 09:06:01;;;;;;;1.83;1.00;;;;;;;;;;4962654;28;20019;-61
2022/07/05 09:08:47;;;;;;;4.78;1.17;;;;;;;;;;4946539;28;20486;-60
2022/07/05 09:11:37;;;;;;;2.25;1.08;;;;;;;;;;4952695;28;20062;-61
2022/07/05 09:14:24;;;;;;;2.25;1.15;;;;;;;;;;4941989;28;20047;-61
2022/07/05 09:17:10;;;;;;;3.78;1.30;;;;;;;;;;4947023;28;20104;-60
2022/07/05 09:20:05;;;;;;;3.03;1.08;;;;;;;;;;4954901;28;20073;-73
2022/07/05 09:22:52;;;;;;;1.60;1.08;;;;;;;;;;4947984;28;20031;-69
2022/07/05 09:25:38;;;;;;;3.53;0.85;;;;;;;;;;4945933;28;20458;-68
2022/07/05 09:28:23;;;;;;;1.45;1.10;;;;;;;;;;4949493;28;20030;-68
2022/07/05 09:31:25;;;;;;;4.15;1.40;;;;;;;;;;4948775;28;20485;-68
2022/07/05 09:34:14;;;;;;;6.35;1.45;;;;;;;;;;4949606;28;20035;-67
2022/07/05 09:37:03;;;;;;;6.60;1.30;;;;;;;;;;4978850;28;20077;-67
2022/07/05 09:39:49;;;;;;;3.72;1.65;;;;;;;;;;4952258;28;20494;-68
2022/07/05 09:42:34;;;;;;;3.13;1.33;;;;;;;;;;4944654;28;20496;-73
2022/07/05 09:45:23;;;;;;;5.43;1.50;;;;;;;;;;4938366;28;20031;-73
2022/07/05 09:48:09;;;;;;;6.35;1.90;;;;;;;;;;4950786;28;20047;-73
2022/07/05 09:51:13;;;;;;;1.58;1.20;;;;;;;;;;4962799;28;20039;-74
2022/07/05 09:54:00;;;;;;;4.15;1.20;;;;;;;;;;4964816;28;20042;-73
2022/07/05 09:56:48;;;;;;;3.22;1.02;;;;;;;;;;4952260;28;20023;-60
2022/07/05 09:59:34;;;;;;;3.90;1.15;;;;;;;;;;4952072;28;20407;-68
2022/07/05 10:02:35;;;;;;;1.65;1.00;;;;;;;;;;4951973;28;20035;-67
2022/07/05 10:05:21;;;;;;;3.65;1.20;;;;;;;;;;4951218;28;20035;-68
2022/07/05 10:08:07;;;;;;;2.78;1.27;;;;;;;;;;4950969;28;20073;-66
2022/07/05 10:10:52;;;;;;;2.58;1.10;;;;;;;;;;4952650;28;20034;-71
2022/07/05 10:13:39;;;;;;;2.03;1.10;;;;;;;;;;4951980;28;20081;-68
2022/07/05 10:16:25;;;;;;;1.98;1.25;;;;;;;;;;4982870;28;20580;-67
2022/07/05 10:19:14;;;;;;;2.97;1.08;;;;;;;;;;4941641;28;20027;-68
2022/07/05 10:22:01;;;;;;;4.82;1.05;;;;;;;;;;4951670;28;20386;-68
2022/07/05 10:24:47;;;;;;;1.83;1.17;;;;;;;;;;4962159;28;20126;-69
2022/07/05 10:27:34;;;;;;;2.63;1.00;;;;;;;;;;4952380;28;20023;-68
2022/07/05 10:30:24;;;;;;;2.55;1.17;;;;;;;;;;4950039;28;20085;-66
2022/07/05 10:33:10;;;;;;;3.80;1.10;;;;;;;;;;4954184;28;20023;-67
2022/07/05 10:35:56;;;;;;;2.75;1.20;;;;;;;;;;4949228;28;20081;-73
2022/07/05 10:38:46;;;;;;;2.15;1.02;;;;;;;;;;4948739;28;20023;-73
2022/07/05 10:41:32;;;;;;;5.72;1.40;;;;;;;;;;4948582;28;20069;-74
2022/07/05 10:44:47;;;;;;;3.88;0.90;;;;;;;;;;4948617;28;20118;-73
2022/07/05 10:47:33;;;;;;;2.20;1.00;;;;;;;;;;4943311;28;20047;-73
2022/07/05 10:50:22;;;;;;;1.30;0.88;;;;;;;;;;4936612;28;20818;-74
2022/07/05 10:53:07;;;;;;;2.28;1.20;;;;;;;;;;4950967;28;20100;-67
2022/07/05 10:56:11;;;;;;;1.05;0.95;;;;;;;;;;4950748;28;20166;-67
2022/07/05 10:59:08;;;;;;;1.73;1.23;;;;;;;;;;4950449;28;20074;-67
2022/07/05 11:02:11;;;;;;;2.53;1.23;;;;;;;;;;4958697;28;20027;-68
2022/07/05 11:04:57;;;;;;;2.58;1.70;;;;;;;;;;4949285;28;20459;-66
2022/07/05 11:07:58;;;;;;;3.30;1.23;;;;;;;;;;4942448;28;20027;-67
2022/07/05 11:11:07;;;;;;;2.10;1.20;;;;;;;;;;4949497;28;20039;-65
2022/07/05 11:13:54;;;;;;;2.55;1.23;;;;;;;;;;4962961;28;20344;-60
2022/07/05 11:16:39;;;;;;;3.83;1.10;;;;;;;;;;4956765;28;20938;-62
2022/07/05 11:19:25;;;;;;;1.60;1.00;;;;;;;;;;4942923;28;20153;-60
2022/07/05 11:22:10;;;;;;;1.95;1.00;;;;;;;;;;4951049;28;20035;-61
2022/07/05 11:24:57;;;;;;;3.80;1.20;;;;;;;;;;4949105;28;20035;-61
2022/07/05 11:28:01;;;;;;;3.25;1.70;;;;;;;;;;4950459;28;20036;-70
2022/07/05 11:30:51;;;;;;;2.97;1.30;;;;;;;;;;4948248;28;20027;-69
2022/07/05 11:33:42;;;;;;;4.93;1.10;;;;;;;;;;4945894;28;20058;-60
2022/07/05 11:36:28;;;;;;;1.48;1.05;;;;;;;;;;4949159;28;20034;-60
2022/07/05 11:39:19;;;;;;;3.08;1.27;;;;;;;;;;4950134;28;20451;-63
2022/07/05 11:42:05;;;;;;;3.17;1.30;;;;;;;;;;4953399;28;20058;-60
2022/07/05 11:44:51;;;;;;;1.67;0.95;;;;;;;;;;4952272;28;20035;-61
2022/07/05 11:47:37;;;;;;;2.55;1.00;;;;;;;;;;4987943;28;20106;-59
2022/07/05 11:50:26;;;;;;;2.55;1.23;;;;;;;;;;4937623;28;20059;-60
2022/07/05 11:53:12;;;;;;;3.10;1.20;;;;;;;;;;4962142;28;20027;-60
2022/07/05 11:55:58;;;;;;;3.88;1.52;;;;;;;;;;4949407;28;20054;-61
2022/07/05 11:58:43;;;;;;;2.83;1.10;;;;;;;;;;4948886;28;20050;-59
2022/07/05 12:01:29;;;;;;;2.22;0.88;;;;;;;;;;4951772;28;20421;-59
2022/07/05 12:04:24;;;;;;;1.75;1.00;;;;;;;;;;4942627;28;20034;-60
2022/07/05 12:07:10;;;;;;;1.65;1.10;;;;;;;;;;4946863;28;20035;-66
2022/07/05 12:13:04;;;;;;;3.65;1.00;;;;;;;;;;4947005;28;20031;-67
2022/07/05 12:15:58;;;;;;;2.85;1.00;;;;;;;;;;4966762;28;20040;-68
2022/07/05 12:18:51;;;;;;;3.35;1.08;;;;;;;;;;4950561;28;20066;-66
2022/07/05 12:21:36;;;;;;;4.22;1.48;;;;;;;;;;4949329;28;20104;-67
2022/07/05 12:24:22;;;;;;;3.72;1.10;;;;;;;;;;4940915;28;20485;-67
2022/07/05 12:27:09;;;;;;;2.58;1.38;;;;;;;;;;4947257;28;20031;-68
2022/07/05 12:29:55;;;;;;;3.33;1.00;;;;;;;;;;4949578;28;20016;-68
2022/07/05 12:32:53;;;;;;;3.03;1.33;;;;;;;;;;4950068;28;20491;-67
2022/07/05 12:35:43;;;;;;;3.38;1.40;;;;;;;;;;4949254;28;20097;-67
2022/07/05 12:38:29;;;;;;;3.70;1.20;;;;;;;;;;4946162;28;20085;-67
2022/07/05 12:41:21;;;;;;;4.38;1.20;;;;;;;;;;4944783;28;20035;-63
2022/07/05 12:44:07;;;;;;;3.88;1.10;;;;;;;;;;4948764;28;20078;-69
2022/07/05 12:47:04;;;;;;;4.68;1.50;;;;;;;;;;4945186;28;20024;-65
2022/07/05 12:49:54;;;;;;;2.45;1.20;;;;;;;;;;4951182;28;20268;-65
2022/07/05 12:52:54;;;;;;;1.67;0.98;;;;;;;;;;4952603;28;20484;-66
2022/07/05 12:59:03;;;;;;;3.25;1.25;;;;;;;;;;4934927;28;20110;-64
2022/07/05 13:01:49;;;;;;;2.05;1.10;;;;;;;;;;4951064;28;20026;-65
2022/07/05 13:04:35;;;;;;;6.45;1.40;;;;;;;;;;4952590;28;20120;-67
2022/07/05 13:07:27;;;;;;;2.63;1.00;;;;;;;;;;4948250;28;20032;-68
2022/07/05 13:10:14;;;;;;;1.67;1.30;;;;;;;;;;4952991;28;20050;-66
2022/07/05 13:13:01;;;;;;;6.65;1.48;;;;;;;;;;4949329;28;20167;-67
2022/07/05 13:15:47;;;;;;;3.13;1.20;;;;;;;;;;4951047;28;20100;-68
2022/07/05 13:18:32;;;;;;;3.38;1.20;;;;;;;;;;4956999;28;20026;-59
2022/07/05 13:21:18;;;;;;;2.70;1.40;;;;;;;;;;4950610;28;20031;-66
2022/07/05 13:24:04;;;;;;;4.57;1.40;;;;;;;;;;4952605;28;20165;-60
2022/07/05 13:26:50;;;;;;;6.63;1.20;;;;;;;;;;4951587;28;20035;-62
2022/07/05 13:29:36;;;;;;;2.80;1.10;;;;;;;;;;4946849;28;20030;-61
2022/07/05 13:32:21;;;;;;;5.18;1.33;;;;;;;;;;4954081;28;20144;-60
2022/07/05 13:35:07;;;;;;;1.58;1.20;;;;;;;;;;4950056;28;20478;-60
2022/07/05 13:37:53;;;;;;;1.70;1.27;;;;;;;;;;4950644;28;20030;-68
2022/07/05 13:40:39;;;;;;;1.95;1.10;;;;;;;;;;4949906;28;20466;-71
2022/07/05 13:43:25;;;;;;;1.20;1.00;;;;;;;;;;4950102;28;20026;-68
2022/07/05 13:46:11;;;;;;;3.75;1.20;;;;;;;;;;4953849;28;20024;-69
2022/07/05 13:48:56;;;;;;;5.32;1.50;;;;;;;;;;4951506;28;20027;-69
2022/07/05 13:51:42;;;;;;;4.28;1.10;;;;;;;;;;4949859;28;20019;-69
2022/07/05 13:54:28;;;;;;;2.35;1.20;;;;;;;;;;4951029;28;20050;-70
2022/07/05 13:57:14;;;;;;;2.40;1.40;;;;;;;;;;4952268;28;20089;-70
2022/07/05 13:59:59;;;;;;;2.47;1.10;;;;;;;;;;4949666;28;20113;-61
2022/07/05 14:02:45;;;;;;;3.25;1.50;;;;;;;;;;4956079;28;20035;-62
2022/07/05 14:05:31;;;;;;;2.22;1.20;;;;;;;;;;4961920;28;20042;-60
2022/07/05 14:08:21;;;;;;;4.00;1.45;;;;;;;;;;4957441;28;20035;-62
2022/07/05 14:11:09;;;;;;;1.20;1.10;;;;;;;;;;4946659;28;20058;-60
2022/07/05 14:13:55;;;;;;;3.88;1.35;;;;;;;;;;4953041;28;20042;-65
2022/07/05 14:16:41;;;;;;;3.00;1.25;;;;;;;;;;4955836;28;20049;-69
2022/07/05 14:19:26;;;;;;;3.47;1.33;;;;;;;;;;4939759;28;20460;-68
2022/07/05 14:22:12;;;;;;;1.63;0.90;;;;;;;;;;4955277;28;20590;-68
2022/07/05 14:24:57;;;;;;;2.20;1.20;;;;;;;;;;4964239;28;20035;-69
2022/07/05 14:27:43;;;;;;;4.82;1.40;;;;;;;;;;4950270;28;20142;-71
2022/07/05 14:30:29;;;;;;;3.65;1.38;;;;;;;;;;4950459;28;20027;-70
2022/07/05 14:33:14;;;;;;;2.25;1.20;;;;;;;;;;4948486;28;20039;-63
2022/07/05 14:36:00;;;;;;;5.50;1.15;;;;;;;;;;4947951;28;20039;-69
2022/07/05 14:38:46;;;;;;;2.15;1.20;;;;;;;;;;4962528;28;20034;-70
2022/07/05 14:41:31;;;;;;;1.33;1.10;;;;;;;;;;4960471;28;20039;-71
2022/07/05 14:44:17;;;;;;;2.92;1.10;;;;;;;;;;4972077;28;20035;-69
2022/07/05 14:47:03;;;;;;;4.05;1.27;;;;;;;;;;4948731;28;20023;-69
2022/07/05 14:49:48;;;;;;;2.63;1.38;;;;;;;;;;4948266;28;20117;-70
2022/07/05 14:52:34;;;;;;;4.35;1.10;;;;;;;;;;4952444;28;20073;-65
2022/07/05 14:55:19;;;;;;;3.53;1.23;;;;;;;;;;4959420;28;20036;-71
2022/07/05 14:58:05;;;;;;;2.83;1.42;;;;;;;;;;4947921;28;20368;-71
2022/07/05 15:00:51;;;;;;;2.78;1.38;;;;;;;;;;4953105;28;20089;-71
2022/07/05 15:03:36;;;;;;;3.20;1.10;;;;;;;;;;4948758;28;20418;-70
2022/07/05 15:06:22;;;;;;;4.47;1.17;;;;;;;;;;4946500;28;20037;-72
2022/07/05 15:09:07;;;;;;;3.05;1.30;;;;;;;;;;4948687;28;20031;-69
2022/07/05 15:11:53;;;;;;;3.38;1.10;;;;;;;;;;4947696;28;20424;-64
2022/07/05 15:14:38;;;;;;;3.50;1.20;;;;;;;;;;4940959;28;20043;-68
2022/07/05 15:17:24;;;;;;;1.88;1.30;;;;;;;;;;4948118;28;20092;-69
2022/07/05 15:20:30;;;;;;;2.47;1.10;;;;;;;;;;4947268;28;20085;-70
2022/07/05 15:23:30;;;;;;;2.63;1.38;;;;;;;;;;4948265;28;20038;-68
2022/07/05 15:26:16;;;;;;;3.92;1.45;;;;;;;;;;4944439;28;20031;-70
2022/07/05 15:29:06;;;;;;;3.47;1.42;;;;;;;;;;4957530;28;20037;-73
2022/07/05 15:31:51;;;;;;;2.63;1.65;;;;;;;;;;4944239;28;20043;-69
2022/07/05 15:34:37;;;;;;;5.65;1.30;;;;;;;;;;4946367;28;20065;-69
2022/07/05 15:37:23;;;;;;;1.40;1.13;;;;;;;;;;4969841;28;20401;-69
2022/07/05 15:40:09;;;;;;;6.00;1.55;;;;;;;;;;4954481;28;20306;-68
2022/07/05 15:42:55;;;;;;;1.65;1.10;;;;;;;;;;4965066;28;20414;-68
2022/07/05 15:45:40;;;;;;;3.50;1.35;;;;;;;;;;4951386;28;20115;-67
2022/07/05 15:48:26;;;;;;;3.88;1.60;;;;;;;;;;4975671;28;20023;-67
2022/07/05 15:51:12;;;;;;;3.60;1.08;;;;;;;;;;4962770;28;20035;-61
2022/07/05 15:53:58;;;;;;;4.20;1.30;;;;;;;;;;4948493;28;20023;-60
2022/07/05 15:56:45;;;;;;;2.22;1.40;;;;;;;;;;4949352;28;20035;-61
2022/07/05 15:59:30;;;;;;;3.97;1.10;;;;;;;;;;4945182;28;20114;-60
2022/07/05 16:02:16;;;;;;;4.10;2.00;;;;;;;;;;4943528;28;20118;-61
2022/07/05 16:05:02;;;;;;;2.67;0.90;;;;;;;;;;4950167;28;20149;-69
2022/07/05 16:07:48;;;;;;;3.13;1.30;;;;;;;;;;4953433;28;21541;-65
2022/07/05 16:10:33;;;;;;;2.70;1.13;;;;;;;;;;4952021;28;20037;-65
2022/07/05 16:13:19;;;;;;;2.45;1.35;;;;;;;;;;4949665;28;20405;-64
2022/07/05 16:16:10;;;;;;;2.65;1.30;;;;;;;;;;4952500;28;20466;-64
2022/07/05 16:18:57;;;;;;;3.60;1.67;;;;;;;;;;4948465;28;20504;-64
2022/07/05 16:21:43;;;;;;;2.92;1.13;;;;;;;;;;4948795;28;20027;-63
2022/07/05 16:24:28;;;;;;;3.25;1.10;;;;;;;;;;4942931;28;20050;-63
2022/07/05 16:27:14;;;;;;;3.90;1.40;;;;;;;;;;4942273;28;20541;-70
2022/07/05 16:30:00;;;;;;;3.25;1.38;;;;;;;;;;4948598;28;20042;-66
2022/07/05 16:32:45;;;;;;;4.53;1.30;;;;;;;;;;4959066;28;20027;-68
2022/07/05 16:35:31;;;;;;;2.25;1.20;;;;;;;;;;4951478;28;20028;-69
2022/07/05 16:38:16;;;;;;;3.15;1.48;;;;;;;;;;4953237;28;20035;-70
2022/07/05 16:41:02;;;;;;;3.95;1.33;;;;;;;;;;4953570;28;20429;-64
2022/07/05 16:43:48;;;;;;;2.55;1.60;;;;;;;;;;4951776;28;20124;-70
2022/07/05 16:46:33;;;;;;;2.70;1.15;;;;;;;;;;4973137;28;20088;-69
2022/07/05 16:49:19;;;;;;;2.05;1.15;;;;;;;;;;4949570;28;20042;-69